Flight Track Log - Related Links

Times and Time Zones

All times are in EDT time to prevent confusion due to time zone crossing. See the N960DL flight status page for this flight to view local times or setup timezone preferences in your user account.

Time Position Orientation Groundspeed Altitude Reporting Facility
EDT Latitude Longitude Course Direction KTS MPH feet Rate Location/Type
Fri 08:07:05 PM 33.6347 -84.4778 245° Southwest 456 525 2,700  Level Atlanta Center
Fri 08:08:05 PM 33.6094 -84.5428 245° Southwest 331 381 5,400 3,250 Climbing Atlanta Center
Fri 08:09:05 PM 33.5531 -84.5872 213° Southwest 229 264 9,200 2,450 Climbing Atlanta Center
Fri 08:10:05 PM 33.4736 -84.5892 181° South 239 275 10,300 1,300 Climbing Atlanta Center
Fri 08:11:05 PM 33.3925 -84.5067 195° South 311 358 11,800 1,650 Climbing Atlanta Center
Fri 08:12:05 PM 33.3242 -84.3869 124° Southeast 392 451 13,600 2,450 Climbing Atlanta Center
Fri 08:13:05 PM 33.2556 -84.2650 124° Southeast 430 495 16,700 2,400 Climbing Atlanta Center
Fri 08:14:05 PM 33.1825 -84.1431 126° Southeast 448 516 18,400 1,900 Climbing Atlanta Center
Fri 08:15:05 PM 33.1075 -84.0164 125° Southeast 455 524 20,500 1,900 Climbing Atlanta Center
Fri 08:16:05 PM 33.0136 -83.9125 137° Southeast 464 534 22,200 1,250 Climbing Atlanta Center
Fri 08:17:05 PM 32.9069 -83.8286 147° Southeast 457 526 23,000 400 Climbing Atlanta Center
Fri 08:18:05 PM 32.8025 -83.7397 144° Southeast 462 532 23,000  Level Atlanta Center
Fri 08:19:05 PM 32.7000 -83.6561 146° Southeast 457 526 23,000  Level Atlanta Center
Fri 08:20:44 PM 32.5450 -83.5039 140° Southeast 451 519 23,000  Level Jacksonville Center
Fri 08:21:44 PM 32.4411 -83.3972 139° Southeast 451 519 23,000  Level Jacksonville Center
Fri 08:22:44 PM 32.3433 -83.3008 140° Southeast 451 519 23,000  Level Jacksonville Center
Fri 08:23:44 PM 32.2456 -83.2069 141° Southeast 457 526 23,000  Level Jacksonville Center
Fri 08:24:44 PM 32.1475 -83.1086 140° Southeast 452 520 23,000  Level Jacksonville Center
Fri 08:25:44 PM 32.0517 -83.0150 140° Southeast 452 520 23,000  Level Jacksonville Center
Fri 08:26:44 PM 31.9536 -82.9169 140° Southeast 452 520 23,000  Level Jacksonville Center
Fri 08:27:44 PM 31.8533 -82.8167 140° Southeast 462 532 23,000  Level Jacksonville Center
Fri 08:28:44 PM 31.7550 -82.7264 142° Southeast 462 532 23,000  Level Jacksonville Center
Fri 08:29:44 PM 31.6569 -82.6289 140° Southeast 462 532 23,000  Level Jacksonville Center
Fri 08:30:44 PM 31.5564 -82.5292 140° Southeast 467 537 23,000  Level Jacksonville Center
Fri 08:31:44 PM 31.4539 -82.4419 144° Southeast 467 537 23,000  Level Jacksonville Center
Fri 08:32:44 PM 31.3594 -82.3669 146° Southeast 455 524 23,000  Level Jacksonville Center
Fri 08:33:44 PM 31.2569 -82.2778 143° Southeast 455 524 23,000  Level Jacksonville Center
Fri 08:34:44 PM 31.1561 -82.1908 144° Southeast 450 518 23,000 -50 Level Jacksonville Center
Fri 08:35:44 PM 31.0511 -82.1044 145° Southeast 455 524 22,900  Descending Jacksonville Center
Fri 08:36:44 PM 30.9483 -82.0181 144° Southeast 455 524 23,000 50 Climbing Jacksonville Center
Fri 08:37:44 PM 30.8369 -81.9247 144° Southeast 455 524 23,000  Level Jacksonville Center
Fri 08:38:44 PM 30.7319 -81.8389 145° Southeast 455 524 23,000 -350 Level Jacksonville Center
Fri 08:39:44 PM 30.6289 -81.7506 144° Southeast 455 524 22,300 -1,200 Descending Jacksonville Center
Fri 08:40:44 PM 30.5342 -81.6722 145° Southeast 442 509 20,600 -1,800 Descending Jacksonville Center
Fri 08:41:44 PM 30.4458 -81.5986 144° Southeast 416 479 18,700 -2,050 Descending Jacksonville Center
Fri 08:42:44 PM 30.3617 -81.5300 145° Southeast 398 458 16,500 -1,350 Descending Jacksonville Center
Fri 08:43:44 PM 30.2650 -81.4833 157° South 379 436 16,000 -250 Descending Jacksonville Center
Fri 08:44:44 PM 30.1664 -81.4439 161° South 374 430 16,000 -50 Level Jacksonville Center
Fri 08:45:44 PM 30.0658 -81.4069 162° South 374 430 15,900  Descending Jacksonville Center
Fri 08:46:44 PM 29.9672 -81.3700 162° South 374 430 16,000  Climbing Jacksonville Center
Fri 08:47:44 PM 29.8603 -81.3286 161° South 389 448 15,900 -350 Descending Jacksonville Center
Fri 08:48:44 PM 29.7553 -81.2897 162° South 396 456 15,300 -966 Descending Jacksonville Center
Fri 08:49:11 PM 29.7092 -81.2714 161° South 379 436 14,500 -2,000 Descending Jacksonville Center
Fri 08:49:44 PM 29.6589 -81.2531 162° South 390 449 13,300 -1,600 Descending Jacksonville Center
Fri 08:50:11 PM 29.6128 -81.2347 161° South 361 415 12,900 -1,200 Descending Jacksonville Center
Fri 08:50:44 PM 29.5686 -81.2189 163° South 372 428 12,100 -1,075 Descending Jacksonville Center
Fri 08:51:18 PM 29.5225 -81.2006 161° South 315 362 11,700 -1,000 Descending Jacksonville Center
Fri 08:51:44 PM 29.4869 -81.1892 164° South 335 386 11,100 -1,475 Descending Jacksonville Center
Fri 08:52:19 PM 29.4428 -81.1781 168° South 280 322 10,200 -1,600 Descending Jacksonville Center
Fri 08:52:44 PM 29.4178 -81.1761 176° South 302 348 9,500 -2,500 Descending Jacksonville Center
Fri 08:53:19 PM 29.3636 -81.1817 185° South 258 297 7,700 -2,600 Descending Jacksonville Center
Fri 08:53:44 PM 29.3428 -81.1822 181° South 279 321 6,900 -1,920 Descending Jacksonville Center

Login

Don't have an account? Register now (free) for customized features, flight alerts, and more!